Time;durP1;ratioP1;P1;durP2;ratioP2;P2;SDS_P1;SDS_P2;PMS_P1;PMS_P2;Temp;Humidity;BMP_temperature;BMP_pressure;BME280_temperature;BME280_humidity;BME280_pressure;Samples;Min_cycle;Max_cycle;Signal;HPM_P1;HPM_P2
2022/09/05 00:01:28;;;;;;;;;;;;;;;17.60;60.14;100423.91;4428022;32;20563;-93
2022/09/05 00:03:53;;;;;;;;;;;;;;;17.63;60.15;100428.16;4411822;32;20028;-91
2022/09/05 00:06:19;;;;;;;;;;;;;;;17.35;60.13;100431.31;4424104;32;20000;-91
2022/09/05 00:08:50;;;;;;;;;;;;;;;17.13;60.12;100435.00;4411880;32;20037;-90
2022/09/05 00:11:18;;;;;;;;;;;;;;;17.25;60.13;100441.41;4411709;32;20000;-91
2022/09/05 00:14:04;;;;;;;;;;;;;;;17.27;60.13;100434.34;4411747;32;20056;-91
2022/09/05 00:16:34;;;;;;;;;;;;;;;17.25;60.13;100446.69;4424483;32;20344;-90
2022/09/05 00:19:18;;;;;;;;;;;;;;;17.19;60.12;100439.09;4411771;32;19961;-91
2022/09/05 00:21:45;;;;;;;;;;;;;;;17.03;60.12;100441.59;4423913;32;19981;-91
2022/09/05 00:24:10;;;;;;;;;;;;;;;17.00;60.12;100436.50;4414388;32;20048;-91
2022/09/05 00:26:42;;;;;;;;;;;;;;;17.00;60.12;100439.12;4423973;32;20033;-89
2022/09/05 00:29:18;;;;;;;;;;;;;;;17.04;60.12;100438.06;4437495;32;19982;-90
2022/09/05 00:31:43;;;;;;;;;;;;;;;17.04;60.12;100437.22;4423592;32;19999;-91
2022/09/05 00:34:33;;;;;;;;;;;;;;;17.09;60.13;100437.84;4423789;32;20386;-92
2022/09/05 00:36:59;;;;;;;;;;;;;;;16.99;60.11;100434.78;4424130;32;19993;-92
2022/09/05 00:39:28;;;;;;;;;;;;;;;16.98;60.11;100426.97;4412214;32;20022;-93
2022/09/05 00:41:55;;;;;;;;;;;;;;;16.98;60.11;100421.72;4412478;32;19973;-92
2022/09/05 00:44:21;;;;;;;;;;;;;;;16.98;60.11;100432.22;4411015;32;19997;-93
2022/09/05 00:46:52;;;;;;;;;;;;;;;17.00;60.12;100433.84;4412575;32;20060;-93
2022/09/05 00:49:22;;;;;;;;;;;;;;;17.08;60.12;100431.72;4412643;32;19995;-93
2022/09/05 00:51:51;;;;;;;;;;;;;;;17.02;60.12;100429.38;4412406;32;19988;-91
2022/09/05 00:54:22;;;;;;;;;;;;;;;17.02;60.12;100429.38;4424904;32;19981;-92
2022/09/05 00:57:06;;;;;;;;;;;;;;;16.80;60.10;100437.44;4423936;32;19994;-92
2022/09/05 00:59:34;;;;;;;;;;;;;;;16.94;60.11;100430.66;4424609;32;19949;-90
2022/09/05 01:02:10;;;;;;;;;;;;;;;16.89;60.11;100438.78;4387010;32;839699;-90
2022/09/05 01:04:38;;;;;;;;;;;;;;;16.86;60.11;100437.16;4426743;32;19993;-91
2022/09/05 01:07:06;;;;;;;;;;;;;;;16.80;60.10;100428.72;4430876;32;19973;-91
2022/09/05 01:09:47;;;;;;;;;;;;;;;16.78;60.10;100426.13;4434724;32;19989;-91
2022/09/05 01:12:31;;;;;;;;;;;;;;;16.79;60.10;100430.47;4427164;32;19980;-92
2022/09/05 01:14:59;;;;;;;;;;;;;;;16.64;60.10;100428.53;4425246;32;20003;-91
2022/09/05 01:17:43;;;;;;;;;;;;;;;16.52;60.09;100426.44;4424658;32;19989;-91
2022/09/05 01:20:11;;;;;;;;;;;;;;;16.56;60.09;100428.88;4424003;32;20443;-90
2022/09/05 01:22:52;;;;;;;;;;;;;;;16.50;60.09;100426.50;4411296;32;20030;-90
2022/09/05 01:25:35;;;;;;;;;;;;;;;16.61;60.09;100426.03;4438192;32;20043;-91
2022/09/05 01:28:12;;;;;;;;;;;;;;;16.51;60.09;100422.97;4437940;32;19989;-91
2022/09/05 01:30:44;;;;;;;;;;;;;;;16.36;60.08;100438.59;4423876;32;20411;-91
2022/09/05 01:33:28;;;;;;;;;;;;;;;16.40;60.08;100430.50;4438271;32;19978;-91
2022/09/05 01:35:56;;;;;;;;;;;;;;;16.80;60.10;100424.31;4424533;32;20012;-90
2022/09/05 01:38:31;;;;;;;;;;;;;;;16.62;60.10;100427.75;4438833;32;20029;-90
2022/09/05 01:40:56;;;;;;;;;;;;;;;16.55;60.09;100421.91;4412167;32;20109;-90
2022/09/05 01:43:31;;;;;;;;;;;;;;;16.55;60.09;100428.94;4439063;32;20025;-90
2022/09/05 01:45:56;;;;;;;;;;;;;;;16.50;60.09;100425.66;4424941;32;20053;-90
2022/09/05 01:48:21;;;;;;;;;;;;;;;16.28;60.08;100436.28;4425007;32;19981;-90
2022/09/05 01:50:49;;;;;;;;;;;;;;;16.70;60.10;100430.91;4424884;32;20703;-90
2022/09/05 01:53:24;;;;;;;;;;;;;;;16.69;60.09;100433.59;4424898;32;19980;-90
2022/09/05 01:56:07;;;;;;;;;;;;;;;16.82;60.10;100424.22;4412682;32;20061;-90
2022/09/05 01:58:36;;;;;;;;;;;;;;;16.65;60.09;100439.91;4424565;32;20011;-90
2022/09/05 02:01:13;;;;;;;;;;;;;;;16.49;60.09;100429.22;4438690;32;19977;-90
2022/09/05 02:03:42;;;;;;;;;;;;;;;16.44;60.08;100429.44;4411884;32;19978;-90
2022/09/05 02:06:07;;;;;;;;;;;;;;;16.46;60.10;100430.22;4424563;32;20001;-90
2022/09/05 02:08:37;;;;;;;;;;;;;;;16.56;60.09;100428.88;4425871;32;20263;-90
2022/09/05 02:11:05;;;;;;;;;;;;;;;16.65;60.10;100430.22;4413871;32;19982;-89
2022/09/05 02:13:33;;;;;;;;;;;;;;;16.36;60.08;100433.34;4440943;32;19988;-89
2022/09/05 02:16:11;;;;;;;;;;;;;;;16.62;60.08;100432.16;4426603;32;19989;-89
2022/09/05 02:18:36;;;;;;;;;;;;;;;16.48;60.09;100435.41;4426901;32;19990;-88
2022/09/05 02:21:02;;;;;;;;;;;;;;;16.58;60.09;100432.28;4440785;32;19981;-89
2022/09/05 02:23:35;;;;;;;;;;;;;;;16.19;60.07;100436.72;4413986;32;20000;-91
2022/09/05 02:26:02;;;;;;;;;;;;;;;16.24;60.07;100438.19;4414517;32;20470;-89
2022/09/05 02:28:46;;;;;;;;;;;;;;;16.40;60.09;100434.91;4414565;32;20087;-89
2022/09/05 02:31:14;;;;;;;;;;;;;;;16.27;60.07;100435.44;4441434;32;20033;-88
2022/09/05 02:33:47;;;;;;;;;;;;;;;16.23;60.08;100440.91;4427803;32;19978;-89
2022/09/05 02:36:34;;;;;;;;;;;;;;;16.27;60.07;100438.06;4428960;32;19966;-88
2022/09/05 02:39:06;;;;;;;;;;;;;;;16.28;60.07;100431.88;4432788;32;19971;-89
2022/09/05 02:41:33;;;;;;;;;;;;;;;16.30;60.07;100436.22;4436237;32;19973;-90
2022/09/05 02:43:59;;;;;;;;;;;;;;;16.27;60.08;100438.06;4415963;32;19987;-90
2022/09/05 02:46:31;;;;;;;;;;;;;;;16.21;60.07;100443.59;4414046;32;20571;-91
2022/09/05 02:49:01;;;;;;;;;;;;;;;16.10;60.07;100442.38;4427013;32;20043;-91
2022/09/05 02:51:36;;;;;;;;;;;;;;;16.12;60.06;100445.78;4414177;32;19973;-92
2022/09/05 02:54:04;;;;;;;;;;;;;;;16.20;60.07;100443.66;4427059;32;19990;-93
2022/09/05 02:56:41;;;;;;;;;;;;;;;16.05;60.06;100446.94;4428161;32;19989;-93
2022/09/05 02:59:52;;;;;;;;;;;;;;;;;;;;;
2022/09/05 03:02:56;;;;;;;;;;;;;;;16.19;60.07;100442.81;4429703;32;36508;-94
2022/09/05 03:05:22;;;;;;;;;;;;;;;15.75;60.04;100454.37;4365617;32;20308;-91
2022/09/05 03:07:54;;;;;;;;;;;;;;;15.98;60.05;100451.63;4365891;32;20017;-93
2022/09/05 03:10:28;;;;;;;;;;;;;;;15.77;60.04;100447.28;4409712;32;20406;-92
2022/09/05 03:13:00;;;;;;;;;;;;;;;15.81;60.05;100446.22;4427526;32;19981;-93
2022/09/05 03:15:34;;;;;;;;;;;;;;;15.82;60.05;100453.19;4427225;32;19974;-92
2022/09/05 03:18:12;;;;;;;;;;;;;;;15.72;60.05;100457.13;4427098;32;20052;-91
2022/09/05 03:20:40;;;;;;;;;;;;;;;15.74;60.04;100455.28;4414017;32;20057;-92
2022/09/05 03:23:12;;;;;;;;;;;;;;;15.72;60.04;100454.50;4427502;32;19996;-92
2022/09/05 03:25:56;;;;;;;;;;;;;;;15.75;60.05;100454.37;4414676;32;19984;-93
2022/09/05 03:28:33;;;;;;;;;;;;;;;15.86;60.04;100454.78;4441545;32;19986;-93
2022/09/05 03:31:07;;;;;;;;;;;;;;;15.74;60.04;100455.28;4427106;32;20017;-93
2022/09/05 03:33:38;;;;;;;;;;;;;;;15.96;60.05;100456.94;4440337;32;19973;-93
2022/09/05 03:36:12;;;;;;;;;;;;;;;15.95;60.06;100463.13;4413534;32;19974;-92
2022/09/05 03:38:57;;;;;;;;;;;;;;;15.83;60.05;100454.88;4440185;32;20004;-91
2022/09/05 03:41:42;;;;;;;;;;;;;;;15.83;60.04;100461.00;4426413;32;20047;-91
2022/09/05 03:44:26;;;;;;;;;;;;;;;15.74;60.04;100460.53;4426344;32;20016;-91
2022/09/05 03:46:52;;;;;;;;;;;;;;;15.53;60.03;100459.62;4426296;32;20004;-91
2022/09/05 03:49:23;;;;;;;;;;;;;;;15.59;60.03;100467.25;4440553;32;20437;-90
2022/09/05 03:52:01;;;;;;;;;;;;;;;15.70;60.05;100467.69;4413335;32;20099;-90
2022/09/05 03:54:38;;;;;;;;;;;;;;;15.94;60.06;100471.06;4426142;32;19977;-90
2022/09/05 03:57:15;;;;;;;;;;;;;;;16.09;60.07;100477.41;4440743;32;20030;-91
2022/09/05 03:59:40;;;;;;;;;;;;;;;15.65;60.04;100481.00;4426927;32;19998;-92
2022/09/05 04:02:06;;;;;;;;;;;;;;;15.34;60.03;100481.34;4441013;32;20262;-91
2022/09/05 04:04:36;;;;;;;;;;;;;;;15.56;60.04;100481.34;4415145;32;20026;-92
2022/09/05 04:07:05;;;;;;;;;;;;;;;15.89;60.05;100475.66;4416783;32;19953;-90
2022/09/05 04:09:49;;;;;;;;;;;;;;;15.60;60.03;100490.81;4429997;32;19976;-90
2022/09/05 04:12:19;;;;;;;;;;;;;;;15.69;60.04;100486.97;4440646;32;19957;-93
2022/09/05 04:14:49;;;;;;;;;;;;;;;15.67;60.04;100485.34;4419294;32;20000;-90
2022/09/05 04:17:18;;;;;;;;;;;;;;;15.81;60.05;100488.22;4413785;32;20347;-93
2022/09/05 04:19:43;;;;;;;;;;;;;;;15.78;60.04;100496.25;4426723;32;20005;-93
2022/09/05 04:22:12;;;;;;;;;;;;;;;15.73;60.04;100501.69;4413821;32;20345;-93
2022/09/05 04:24:56;;;;;;;;;;;;;;;15.60;60.03;100505.72;4426599;32;20027;-90
2022/09/05 04:27:21;;;;;;;;;;;;;;;15.74;60.04;100505.16;4440446;32;19988;-92
2022/09/05 04:30:10;;;;;;;;;;;;;;;15.93;60.05;100508.72;4426182;32;20002;-92
2022/09/05 04:32:51;;;;;;;;;;;;;;;15.85;60.05;100505.56;4396860;32;19989;-91
2022/09/05 04:35:32;;;;;;;;;;;;;;;15.96;60.06;100511.22;4412955;32;19974;-90
2022/09/05 04:37:58;;;;;;;;;;;;;;;15.99;60.05;100505.84;4426168;32;20041;-91
2022/09/05 04:40:30;;;;;;;;;;;;;;;16.18;60.07;100514.66;4440125;32;19978;-91
2022/09/05 04:43:12;;;;;;;;;;;;;;;16.31;60.07;100508.84;4412920;32;19993;-91
2022/09/05 04:45:58;;;;;;;;;;;;;;;16.22;60.06;100515.37;4439958;32;20000;-90
2022/09/05 04:48:27;;;;;;;;;;;;;;;16.42;60.08;100512.75;4439391;32;19969;-90
2022/09/05 04:50:57;;;;;;;;;;;;;;;16.40;60.08;100513.72;4426528;32;19986;-92
2022/09/05 04:53:25;;;;;;;;;;;;;;;16.58;60.09;100518.19;4413884;32;19989;-91
2022/09/05 04:55:51;;;;;;;;;;;;;;;16.61;60.08;100518.03;4426067;32;19999;-90
2022/09/05 04:58:19;;;;;;;;;;;;;;;16.50;60.08;100521.13;4425569;32;19993;-90
2022/09/05 05:00:50;;;;;;;;;;;;;;;16.60;60.09;100526.00;4439758;32;19974;-90
2022/09/05 05:03:16;;;;;;;;;;;;;;;16.48;60.08;100519.50;4413062;32;19993;-91
2022/09/05 05:05:41;;;;;;;;;;;;;;;16.62;60.08;100522.38;4412604;32;20365;-90
2022/09/05 05:08:12;;;;;;;;;;;;;;;16.50;60.08;100520.28;4425259;32;20275;-90
2022/09/05 05:10:42;;;;;;;;;;;;;;;16.51;60.08;100519.34;4425741;32;20002;-93
2022/09/05 05:13:13;;;;;;;;;;;;;;;16.59;60.08;100522.50;4439754;32;19981;-91
2022/09/05 05:15:43;;;;;;;;;;;;;;;16.59;60.09;100525.16;4439491;32;19995;-90
2022/09/05 05:18:22;;;;;;;;;;;;;;;16.83;60.09;100531.09;4412718;32;20342;-92
2022/09/05 05:20:50;;;;;;;;;;;;;;;16.97;60.11;100530.47;4412866;32;20123;-90
2022/09/05 05:23:16;;;;;;;;;;;;;;;17.11;60.12;100517.53;4425552;32;20459;-90
2022/09/05 05:25:52;;;;;;;;;;;;;;;16.73;60.10;100529.78;4439507;32;19997;-90
2022/09/05 05:28:43;;;;;;;;;;;;;;;16.77;60.09;100534.84;4425644;32;20069;-90
2022/09/05 05:31:12;;;;;;;;;;;;;;;16.96;60.11;100526.13;4415161;32;19985;-92
2022/09/05 05:33:37;;;;;;;;;;;;;;;17.14;60.11;100520.88;4425703;32;20282;-90
2022/09/05 05:36:03;;;;;;;;;;;;;;;17.31;60.12;100527.12;4412620;32;19986;-92
2022/09/05 05:38:35;;;;;;;;;;;;;;;17.27;60.12;100522.91;4412762;32;20332;-92
2022/09/05 05:41:05;;;;;;;;;;;;;;;17.29;60.12;100527.19;4425676;32;20011;-92
2022/09/05 05:43:35;;;;;;;;;;;;;;;17.54;60.13;100523.41;4425689;32;19966;-92
2022/09/05 05:46:00;;;;;;;;;;;;;;;17.61;60.14;100527.44;4416310;32;19991;-92
2022/09/05 05:48:32;;;;;;;;;;;;;;;17.89;60.15;100524.31;4414382;32;19973;-91
2022/09/05 05:51:02;;;;;;;;;;;;;;;17.84;60.15;100527.19;4427126;32;19993;-91
2022/09/05 05:53:33;;;;;;;;;;;;;;;17.88;60.16;100525.25;4441176;32;19982;-91
2022/09/05 05:56:49;;;;;;;;;;;;;;;17.95;60.16;100535.41;4413918;32;19977;-90
2022/09/05 05:59:38;;;;;;;;;;;;;;;18.00;60.17;100525.50;4427126;32;19974;-92
2022/09/05 06:02:10;;;;;;;;;;;;;;;18.28;60.18;100519.69;4427096;32;20008;-92
2022/09/05 06:04:41;;;;;;;;;;;;;;;18.43;60.18;100528.56;4427063;32;19997;-91
2022/09/05 06:07:25;;;;;;;;;;;;;;;18.56;60.20;100527.00;4426834;32;20045;-91
2022/09/05 06:10:14;;;;;;;;;;;;;;;18.96;60.21;100522.28;4427268;32;19993;-91
2022/09/05 06:13:01;;;;;;;;;;;;;;;19.24;60.23;100525.09;4418562;32;20277;-91
2022/09/05 06:15:29;;;;;;;;;;;;;;;19.50;60.24;100517.50;4441370;32;20001;-92
2022/09/05 06:18:13;;;;;;;;;;;;;;;19.69;60.25;100517.34;4427124;32;19993;-91
2022/09/05 06:21:08;;;;;;;;;;;;;;;19.85;60.26;100523.41;4427349;32;20236;-91
2022/09/05 06:23:52;;;;;;;;;;;;;;;20.09;60.27;100521.13;4428116;32;19992;-92
2022/09/05 06:26:35;;;;;;;;;;;;;;;20.07;60.27;100521.22;4427344;32;20000;-91
2022/09/05 06:29:19;;;;;;;;;;;;;;;20.36;60.29;100514.22;4427489;32;20086;-92
2022/09/05 06:32:17;;;;;;;;;;;;;;;20.27;60.28;100525.34;4427435;32;20514;-92
2022/09/05 06:34:42;;;;;;;;;;;;;;;20.34;60.29;100521.38;4393187;32;19986;-91
2022/09/05 06:37:25;;;;;;;;;;;;;;;20.63;60.31;100524.94;4426822;32;20031;-91
2022/09/05 06:39:51;;;;;;;;;;;;;;;20.63;60.31;100527.59;4426728;32;20289;-89
2022/09/05 06:42:35;;;;;;;;;;;;;;;20.83;60.31;100534.31;4440964;32;19965;-90
2022/09/05 06:45:23;;;;;;;;;;;;;;;20.85;60.31;100535.06;4441217;32;19977;-90
2022/09/05 06:47:49;;;;;;;;;;;;;;;21.02;60.31;100533.97;4414241;32;19985;-91
2022/09/05 06:50:18;;;;;;;;;;;;;;;21.32;60.33;100536.53;4414009;32;20015;-89
2022/09/05 06:52:49;;;;;;;;;;;;;;;21.37;60.34;100545.03;4426902;32;20032;-90
2022/09/05 06:55:32;;;;;;;;;;;;;;;21.58;60.35;100525.09;4414039;32;20015;-89
2022/09/05 06:58:01;;;;;;;;;;;;;;;21.70;60.35;100536.69;4426061;32;20286;-88
2022/09/05 07:00:28;;;;;;;;;;;;;;;21.93;60.36;100527.22;4425413;32;19986;-88
2022/09/05 07:02:55;;;;;;;;;;;;;;;21.98;60.37;100530.41;4425643;32;19973;-89
2022/09/05 07:05:29;;;;;;;;;;;;;;;22.06;60.37;100536.09;4425436;32;20005;-88
2022/09/05 07:07:56;;;;;;;;;;;;;;;22.08;60.38;100531.53;4425589;32;19997;-88
2022/09/05 07:10:37;;;;;;;;;;;;;;;22.31;60.38;100529.97;4425811;32;19986;-88
2022/09/05 07:13:13;;;;;;;;;;;;;;;22.36;60.39;100534.00;4418818;32;19988;-88
2022/09/05 07:15:51;;;;;;;;;;;;;;;22.56;60.39;100534.44;4446620;32;20035;-86
2022/09/05 07:18:21;;;;;;;;;;;;;;;22.66;60.41;100539.00;4426249;32;20000;-87
2022/09/05 07:20:49;;;;;;;;;;;;;;;22.66;60.41;100536.34;4439696;32;19986;-87
2022/09/05 07:23:25;;;;;;;;;;;;;;;22.86;60.42;100534.97;4439775;32;19977;-87
2022/09/05 07:25:50;;;;;;;;;;;;;;;23.09;60.43;100535.16;4425427;32;20035;-87
2022/09/05 07:28:18;;;;;;;;;;;;;;;22.99;60.43;100540.28;4425412;32;20038;-85
2022/09/05 07:30:47;;;;;;;;;;;;;;;23.31;60.45;100534.47;4412808;32;20035;-88
2022/09/05 07:33:16;;;;;;;;;;;;;;;23.26;60.43;100527.66;4425326;32;20370;-87
2022/09/05 07:35:41;;;;;;;;;;;;;;;23.37;60.45;100528.69;4425342;32;20006;-88
2022/09/05 07:38:12;;;;;;;;;;;;;;;23.58;60.46;100532.47;4424625;32;23032;-86
2022/09/05 07:40:38;;;;;;;;;;;;;;;23.59;60.46;100528.84;4425470;32;20049;-89
2022/09/05 07:43:06;;;;;;;;;;;;;;;23.69;60.46;100529.88;4425415;32;20019;-88
2022/09/05 07:45:32;;;;;;;;;;;;;;;23.83;60.47;100534.16;4425383;32;20001;-88
2022/09/05 07:48:02;;;;;;;;;;;;;;;23.96;60.47;100537.59;4425002;32;20655;-88
2022/09/05 07:50:27;;;;;;;;;;;;;;;24.27;60.49;100532.59;4439221;32;20029;-88
2022/09/05 07:52:54;;;;;;;;;;;;;;;24.25;60.49;100532.72;4425362;32;20003;-87
2022/09/05 07:55:20;;;;;;;;;;;;;;;24.32;60.49;100525.16;4425564;32;19985;-88
2022/09/05 07:57:46;;;;;;;;;;;;;;;24.47;60.51;100521.31;4439940;32;20087;-88
2022/09/05 08:00:17;;;;;;;;;;;;;;;24.57;60.50;100527.59;4425023;32;19973;-89
2022/09/05 08:02:43;;;;;;;;;;;;;;;24.49;60.50;100519.38;4425402;32;20351;-88
2022/09/05 08:05:08;;;;;;;;;;;;;;;24.56;60.51;100517.06;4438616;32;19989;-88
2022/09/05 08:07:36;;;;;;;;;;;;;;;24.39;60.50;100518.41;4425297;32;19973;-88
2022/09/05 08:10:12;;;;;;;;;;;;;;;24.79;60.52;100526.78;4425257;32;19986;-87
2022/09/05 08:12:52;;;;;;;;;;;;;;;24.86;60.53;100521.81;4425153;32;20000;-89
2022/09/05 08:15:18;;;;;;;;;;;;;;;24.91;60.52;100523.16;4426211;32;20003;-88
2022/09/05 08:17:43;;;;;;;;;;;;;;;24.76;60.52;100530.53;4425140;32;19997;-90
2022/09/05 08:20:14;;;;;;;;;;;;;;;25.06;60.53;100527.25;4425073;32;20026;-88
2022/09/05 08:22:45;;;;;;;;;;;;;;;25.31;60.55;100527.94;4439128;32;20083;-88
2022/09/05 08:25:10;;;;;;;;;;;;;;;25.16;60.54;100527.41;4412390;32;20668;-87
2022/09/05 08:27:55;;;;;;;;;;;;;;;25.45;60.55;100527.69;4439106;32;20308;-88
2022/09/05 08:30:20;;;;;;;;;;;;;;;25.69;60.56;100519.53;4439101;32;20330;-87
2022/09/05 08:32:52;;;;;;;;;;;;;;;25.90;60.57;100508.88;4438859;32;19981;-88
2022/09/05 08:35:24;;;;;;;;;;;;;;;26.06;60.59;100521.78;4439077;32;19993;-88
2022/09/05 08:37:50;;;;;;;;;;;;;;;25.85;60.57;100521.78;4424924;32;20008;-86
2022/09/05 08:40:26;;;;;;;;;;;;;;;26.09;60.58;100518.87;4439014;32;19973;-88
2022/09/05 08:43:18;;;;;;;;;;;;;;;25.98;60.59;100512.59;4425085;32;19977;-87
2022/09/05 08:45:53;;;;;;;;;;;;;;;26.12;60.60;100513.25;4427913;32;19987;-89
2022/09/05 08:48:18;;;;;;;;;;;;;;;26.19;60.60;100511.75;4419574;32;19989;-85
2022/09/05 08:50:56;;;;;;;;;;;;;;;26.28;60.60;100513.66;4440103;32;19992;-87
2022/09/05 08:53:24;;;;;;;;;;;;;;;26.44;60.61;100503.38;4439348;32;19986;-87
2022/09/05 08:55:53;;;;;;;;;;;;;;;26.57;60.62;100504.00;4439280;32;20004;-88
2022/09/05 08:58:37;;;;;;;;;;;;;;;26.55;60.62;100503.31;4425432;32;20007;-87
2022/09/05 09:01:21;;;;;;;;;;;;;;;26.55;60.62;100505.97;4439250;32;19977;-88
2022/09/05 09:03:50;;;;;;;;;;;;;;;26.55;60.61;100507.78;4439547;32;19965;-89
2022/09/05 09:06:20;;;;;;;;;;;;;;;26.65;60.62;100498.00;4425595;32;20044;-86
2022/09/05 09:08:51;;;;;;;;;;;;;;;26.78;60.62;100495.94;4412987;32;20005;-87
2022/09/05 09:11:23;;;;;;;;;;;;;;;26.81;60.63;100484.16;4425772;32;20349;-88
2022/09/05 09:13:51;;;;;;;;;;;;;;;26.85;60.63;100485.56;4425858;32;19973;-87
2022/09/05 09:16:16;;;;;;;;;;;;;;;26.91;60.63;100480.50;4412643;32;19989;-88
2022/09/05 09:18:45;;;;;;;;;;;;;;;26.90;60.63;100478.81;4424197;32;20030;-87
2022/09/05 09:21:22;;;;;;;;;;;;;;;27.09;60.64;100475.41;4439252;32;19995;-86
2022/09/05 09:23:53;;;;;;;;;;;;;;;26.95;60.64;100478.41;4425468;32;20008;-87
2022/09/05 09:26:19;;;;;;;;;;;;;;;26.98;60.64;100475.50;4439122;32;19981;-87
2022/09/05 09:28:47;;;;;;;;;;;;;;;27.33;60.65;100480.38;4425160;32;20337;-88
2022/09/05 09:31:21;;;;;;;;;;;;;;;27.50;60.66;100481.50;4439120;32;19999;-88
2022/09/05 09:33:48;;;;;;;;;;;;;;;27.36;60.66;100480.09;4439302;32;19974;-88
2022/09/05 09:36:16;;;;;;;;;;;;;;;27.55;60.67;100479.25;4412293;32;20424;-88
2022/09/05 09:38:41;;;;;;;;;;;;;;;27.80;60.67;100481.41;4424941;32;20055;-86
2022/09/05 09:41:16;;;;;;;;;;;;;;;28.16;60.70;100484.31;4438541;32;19986;-87
2022/09/05 09:43:47;;;;;;;;;;;;;;;28.36;60.71;100480.59;4411251;32;20004;-88
2022/09/05 09:46:26;;;;;;;;;;;;;;;28.12;60.69;100478.38;4423892;32;19989;-86
2022/09/05 09:49:10;;;;;;;;;;;;;;;28.47;60.72;100478.75;4438006;32;19981;-88
2022/09/05 09:51:42;;;;;;;;;;;;;;;28.53;60.71;100475.50;4424224;32;20082;-88
2022/09/05 09:54:19;;;;;;;;;;;;;;;28.64;60.73;100472.62;4438437;32;19991;-87
2022/09/05 09:56:57;;;;;;;;;;;;;;;28.58;60.72;100473.22;4438400;32;20020;-88
2022/09/05 09:59:23;;;;;;;;;;;;;;;28.91;60.73;100466.47;4424074;32;20002;-88
2022/09/05 10:01:53;;;;;;;;;;;;;;;29.24;60.75;100465.81;4423460;32;20366;-88
2022/09/05 10:04:27;;;;;;;;;;;;;;;29.54;60.76;100458.44;4423905;32;19973;-87
2022/09/05 10:06:58;;;;;;;;;;;;;;;29.75;60.78;100458.94;4437859;32;19989;-88
2022/09/05 10:09:23;;;;;;;;;;;;;;;29.94;60.78;100457.94;4437531;32;19993;-86
2022/09/05 10:11:55;;;;;;;;;;;;;;;30.19;60.80;100450.91;4423836;32;20031;-88
2022/09/05 10:14:29;;;;;;;;;;;;;;;30.18;60.80;100447.37;4424130;32;19973;-88
2022/09/05 10:17:00;;;;;;;;;;;;;;;30.44;60.81;100446.50;4447657;32;19991;-87
2022/09/05 10:19:39;;;;;;;;;;;;;;;30.53;60.83;100451.78;4441554;32;19974;-87
2022/09/05 10:22:23;;;;;;;;;;;;;;;30.59;60.82;100452.12;4424808;32;19978;-87
2022/09/05 10:24:48;;;;;;;;;;;;;;;30.69;60.83;100452.88;4438975;32;20042;-87
2022/09/05 10:27:18;;;;;;;;;;;;;;;30.66;60.83;100450.50;4437624;32;19992;-87
2022/09/05 10:29:45;;;;;;;;;;;;;;;31.04;60.85;100446.47;4425755;32;20004;-87
2022/09/05 10:32:22;;;;;;;;;;;;;;;31.16;60.84;100439.75;4426476;32;19997;-87
2022/09/05 10:34:50;;;;;;;;;;;;;;;31.25;60.86;100444.19;4440665;32;19965;-87
2022/09/05 10:37:16;;;;;;;;;;;;;;;31.22;60.85;100438.28;4440581;32;19966;-86
2022/09/05 10:39:42;;;;;;;;;;;;;;;31.51;60.87;100429.75;4413146;32;24072;-86
2022/09/05 10:42:28;;;;;;;;;;;;;;;31.57;60.88;100426.38;4426327;32;19973;-86
2022/09/05 10:44:53;;;;;;;;;;;;;;;31.53;60.87;100419.66;4439874;32;19984;-87
2022/09/05 10:47:38;;;;;;;;;;;;;;;31.28;60.86;100421.50;4426409;32;20598;-87
2022/09/05 10:50:09;;;;;;;;;;;;;;;31.25;60.87;100416.44;4440836;32;20042;-86
2022/09/05 10:52:35;;;;;;;;;;;;;;;31.44;60.87;100422.31;4426575;32;20015;-87
2022/09/05 10:55:00;;;;;;;;;;;;;;;31.12;60.86;100419.56;4440644;32;20393;-87
2022/09/05 10:57:31;;;;;;;;;;;;;;;30.94;60.85;100418.84;4439950;32;19985;-86
2022/09/05 11:00:19;;;;;;;;;;;;;;;30.55;60.82;100422.91;4426495;32;20305;-87
2022/09/05 11:02:44;;;;;;;;;;;;;;;30.41;60.82;100417.28;4440414;32;19978;-87
2022/09/05 11:05:22;;;;;;;;;;;;;;;30.40;60.82;100421.81;4425937;32;20001;-87
2022/09/05 11:07:47;;;;;;;;;;;;;;;30.26;60.81;100419.72;4439959;32;20297;-86
2022/09/05 11:10:33;;;;;;;;;;;;;;;30.22;60.81;100418.34;4440251;32;20342;-86
2022/09/05 11:13:02;;;;;;;;;;;;;;;30.40;60.82;100415.59;4426343;32;20310;-86
2022/09/05 11:15:43;;;;;;;;;;;;;;;30.67;60.83;100412.72;4426295;32;19969;-87
2022/09/05 11:18:09;;;;;;;;;;;;;;;30.81;60.84;100409.44;4440303;32;19999;-87
2022/09/05 11:20:53;;;;;;;;;;;;;;;30.67;60.83;100410.03;4413572;32;19989;-86
2022/09/05 11:23:22;;;;;;;;;;;;;;;31.02;60.85;100397.38;4426390;32;19985;-87
2022/09/05 11:25:54;;;;;;;;;;;;;;;30.80;60.84;100397.00;4426285;32;19981;-87
2022/09/05 11:28:29;;;;;;;;;;;;;;;30.84;60.84;100401.03;4426354;32;20008;-87
2022/09/05 11:30:55;;;;;;;;;;;;;;;30.97;60.85;100402.38;4426495;32;19995;-87
2022/09/05 11:33:39;;;;;;;;;;;;;;;30.88;60.84;100392.63;4426377;32;20006;-87
2022/09/05 11:36:08;;;;;;;;;;;;;;;31.02;60.85;100392.00;4440269;32;19980;-87
2022/09/05 11:38:38;;;;;;;;;;;;;;;30.54;60.84;100399.72;4440142;32;20037;-87
2022/09/05 11:41:03;;;;;;;;;;;;;;;30.54;60.83;100390.84;4424997;32;20349;-87
2022/09/05 11:43:32;;;;;;;;;;;;;;;30.61;60.83;100391.03;4426076;32;19986;-86
2022/09/05 11:45:57;;;;;;;;;;;;;;;30.54;60.83;100393.53;4440021;32;19965;-87
2022/09/05 11:48:29;;;;;;;;;;;;;;;30.00;60.80;100397.38;4445087;32;19997;-86
2022/09/05 11:50:59;;;;;;;;;;;;;;;30.10;60.81;100390.13;4430664;32;19997;-88
2022/09/05 11:53:31;;;;;;;;;;;;;;;30.00;60.80;100392.03;4426060;32;19978;-88
2022/09/05 11:56:15;;;;;;;;;;;;;;;30.15;60.81;100391.31;4412880;32;20389;-87
2022/09/05 11:58:45;;;;;;;;;;;;;;;30.30;60.82;100388.03;4440057;32;20033;-87
2022/09/05 12:01:28;;;;;;;;;;;;;;;30.36;60.83;100382.00;4439755;32;19990;-88
2022/09/05 12:04:07;;;;;;;;;;;;;;;30.54;60.83;100380.94;4426017;32;20779;-87
2022/09/05 12:06:32;;;;;;;;;;;;;;;30.68;60.84;100382.16;4413059;32;20308;-87
2022/09/05 12:09:11;;;;;;;;;;;;;;;30.58;60.83;100385.97;4439445;32;19985;-86
2022/09/05 12:11:36;;;;;;;;;;;;;;;30.36;60.83;100382.00;4425848;32;19989;-87
2022/09/05 12:14:20;;;;;;;;;;;;;;;30.41;60.82;100377.00;4439708;32;20033;-86
2022/09/05 12:16:45;;;;;;;;;;;;;;;30.39;60.83;100387.06;4440105;32;20079;-87
2022/09/05 12:19:17;;;;;;;;;;;;;;;30.19;60.80;100381.94;4439888;32;20029;-87
2022/09/05 12:22:01;;;;;;;;;;;;;;;30.21;60.82;100385.28;4426154;32;19997;-88
2022/09/05 12:24:41;;;;;;;;;;;;;;;29.88;60.80;100380.72;4425367;32;20368;-88
2022/09/05 12:27:14;;;;;;;;;;;;;;;29.81;60.80;100375.16;4439679;32;19970;-87
2022/09/05 12:29:40;;;;;;;;;;;;;;;29.72;60.80;100372.56;4426596;32;20031;-88
2022/09/05 12:32:12;;;;;;;;;;;;;;;30.08;60.81;100379.53;4413110;32;20018;-88
2022/09/05 12:34:37;;;;;;;;;;;;;;;30.05;60.80;100374.50;4425589;32;19973;-86
2022/09/05 12:37:02;;;;;;;;;;;;;;;29.84;60.80;100372.16;4425521;32;20031;-87
2022/09/05 12:39:34;;;;;;;;;;;;;;;29.85;60.79;100363.09;4412419;32;19982;-85
2022/09/05 12:42:01;;;;;;;;;;;;;;;30.01;60.80;100361.50;4439814;32;20313;-87
2022/09/05 12:44:36;;;;;;;;;;;;;;;29.76;60.79;100364.03;4425779;32;20052;-86
2022/09/05 12:47:06;;;;;;;;;;;;;;;30.12;60.81;100351.34;4439264;32;20009;-86
2022/09/05 12:49:46;;;;;;;;;;;;;;;30.44;60.83;100350.66;4425709;32;19985;-86
2022/09/05 12:52:14;;;;;;;;;;;;;;;30.48;60.83;100343.09;4425386;32;20003;-86
2022/09/05 12:54:41;;;;;;;;;;;;;;;30.55;60.84;100344.16;4425722;32;19973;-86
2022/09/05 12:57:09;;;;;;;;;;;;;;;30.77;60.84;100338.19;4425595;32;20323;-87
2022/09/05 12:59:35;;;;;;;;;;;;;;;30.88;60.85;100338.87;4425398;32;19985;-86
2022/09/05 13:02:06;;;;;;;;;;;;;;;31.08;60.86;100335.69;4425151;32;19988;-86
2022/09/05 13:04:45;;;;;;;;;;;;;;;30.98;60.85;100340.38;4426263;32;20022;-86
2022/09/05 13:07:20;;;;;;;;;;;;;;;30.85;60.85;100335.50;4425048;32;20011;-85